Terminal Aerodrome Forecast
Issued by NWS

Home | Current Version | Previous Version | Text Only | Print | Product List | Glossary On
Versions: 1 2 3 4 5 6 7 8 9 10 11 12 13 14 15 16 17 18 19 20 21 22 23 24 25 26 27 28 29 30 31 32 33 34 35 36 37 38 39 40 41 42 43 44 45 46 47 48 49 50
000
FTUS41 KRNK 221435 AAE
TAFLWB
TAF AMD
KLWB 221435Z 2215/2312 13007KT P6SM OVC035
     FM222300 18008G17KT P6SM VCSH OVC050
     FM230200 18010G18KT 5SM -SHRA BR OVC035 WS020/19035KT
     FM230400 17011G20KT 2SM -SHRA BR OVC015 WS020/19035KT
      TEMPO 2305/2307 VRB15G25KT 1SM +SHRA BR OVC005
     FM231000 24010G18KT 3/4SM -SHRA BR OVC004=

USA.gov is the U.S. government's official web portal to all federal, state and local government web resources and services.